LEGE/GRO METAR and TAF weather

Enter ICAO airport designator
Station Type Date Time Source
LEGE METAR 2019/02/21 11:30 UTC NOAA

LEGE 211130Z 20003KT 130V260 9000 NSC 14/06 Q1029


Station Type Date Time Source
LEGE Decoded METAR 2019/02/21 11:30 UTC NOAA

Gerona / Costa Brava, Spain (LEGE) 41-54N 002-46E 129M
Feb 21, 2019 - 06:30 AM EST / 2019.02.21 1130 UTC
Wind: from the SSW (200 degrees) at 3 MPH (3 KT) (direction variable):0
Visibility: 5 mile(s):0
Temperature: 57 F (14 C)
Dew Point: 42 F (6 C)
Relative Humidity: 58%
Pressure (altimeter): 30.39 in. Hg (1029 hPa)
ob: LEGE 211130Z 20003KT 130V260 9000 NSC 14/06 Q1029
cycle: 11

Station Type Date Time Source
LEGE TAF 2019/02/21 12:27 UTC NOAA

TAF LEGE 211100Z 2112/2212 17008KT 9999 SCT030 TX19/2113Z TN02/2206Z
BECMG 2118/2120 VRB04KT PROB40
TEMPO 2124/2209 2000 BR BKN004 PROB30
TEMPO 2124/2208 0500 FG VV001


Example: see airport list